DTTZ/TOE METAR and TAF weather

Enter ICAO airport designator
Station Type Date Time Source
DTTZ METAR 2019/10/21 23:00 UTC NOAA

DTTZ 212300Z 08021KT 3000 SA SCT033 25/16 Q1015 NOSIG


Station Type Date Time Source
DTTZ Decoded METAR 2019/10/21 23:00 UTC NOAA

Tozeur, Tunisia (DTTZ) 33-55N 008-06E 93M
Oct 21, 2019 - 07:00 PM EDT / 2019.10.21 2300 UTC
Wind: from the E (080 degrees) at 24 MPH (21 KT):0
Visibility: 1 mile(s):0
Sky conditions: partly cloudy
Weather: sand
Temperature: 77 F (25 C)
Dew Point: 60 F (16 C)
Relative Humidity: 57%
Pressure (altimeter): 29.97 in. Hg (1015 hPa)
ob: DTTZ 212300Z 08021KT 3000 SA SCT033 25/16 Q1015 NOSIG
cycle: 23

Station Type Date Time Source
DTTZ TAF 2019/10/21 18:03 UTC NOAA

TAF DTTZ 211700Z 2118/2218 09025G35KT 3000 SA SCT030
BECMG 2205/2207 09016KT 4000 NSC

Example: see airport list